Time;durP1;ratioP1;P1;durP2;ratioP2;P2;SDS_P1;SDS_P2;PMS_P1;PMS_P2;Temp;Humidity;BMP_temperature;BMP_pressure;BME280_temperature;BME280_humidity;BME280_pressure;Samples;Min_cycle;Max_cycle;Signal;HPM_P1;HPM_P2
2023/02/07 00:00:34;;;;;;;6.77;4.90;;;;;;;;;;5085135;28;20535;-68
2023/02/07 00:03:02;;;;;;;8.53;5.10;;;;;;;;;;5083206;28;20487;-68
2023/02/07 00:05:30;;;;;;;7.63;4.53;;;;;;;;;;5085374;28;20823;-67
2023/02/07 00:07:58;;;;;;;7.13;4.70;;;;;;;;;;5092024;28;20462;-67
2023/02/07 00:10:26;;;;;;;5.00;4.50;;;;;;;;;;5078358;28;20535;-67
2023/02/07 00:12:55;;;;;;;6.93;4.53;;;;;;;;;;5086394;28;20982;-67
2023/02/07 00:15:24;;;;;;;7.07;5.33;;;;;;;;;;5091259;28;20483;-67
2023/02/07 00:17:52;;;;;;;6.10;5.30;;;;;;;;;;5093912;28;20479;-67
2023/02/07 00:20:20;;;;;;;5.83;5.07;;;;;;;;;;5088822;28;20902;-67
2023/02/07 00:22:48;;;;;;;5.50;4.50;;;;;;;;;;5097755;28;20466;-67
2023/02/07 00:25:16;;;;;;;6.13;5.20;;;;;;;;;;5083759;28;20872;-67
2023/02/07 00:27:43;;;;;;;6.33;4.67;;;;;;;;;;5088604;28;20459;-67
2023/02/07 00:30:13;;;;;;;6.40;4.90;;;;;;;;;;5092815;28;20452;-68
2023/02/07 00:32:41;;;;;;;7.03;4.43;;;;;;;;;;5097658;28;20502;-67
2023/02/07 00:35:09;;;;;;;5.63;4.83;;;;;;;;;;5093766;28;20455;-67
2023/02/07 00:37:37;;;;;;;5.23;4.37;;;;;;;;;;5077217;28;20847;-67
2023/02/07 00:40:06;;;;;;;7.17;5.07;;;;;;;;;;5073762;28;20456;-67
2023/02/07 00:42:34;;;;;;;5.10;4.60;;;;;;;;;;5074647;28;20460;-67
2023/02/07 00:45:01;;;;;;;6.73;4.87;;;;;;;;;;5068831;28;20447;-67
2023/02/07 00:47:31;;;;;;;7.57;5.10;;;;;;;;;;5078275;28;20437;-67
2023/02/07 00:49:59;;;;;;;5.90;4.80;;;;;;;;;;5068431;28;20444;-67
2023/02/07 00:52:27;;;;;;;4.87;4.20;;;;;;;;;;5081117;28;20474;-67
2023/02/07 00:54:55;;;;;;;6.87;4.47;;;;;;;;;;5080958;28;20472;-67
2023/02/07 00:57:23;;;;;;;5.67;4.83;;;;;;;;;;5073387;28;20878;-67
2023/02/07 00:59:51;;;;;;;6.30;5.00;;;;;;;;;;5075722;28;20526;-67
2023/02/07 01:02:19;;;;;;;9.03;4.93;;;;;;;;;;5080778;28;20446;-67
2023/02/07 01:04:48;;;;;;;5.70;4.43;;;;;;;;;;5081903;28;20874;-67
2023/02/07 01:07:16;;;;;;;6.57;4.60;;;;;;;;;;5060711;28;20446;-67
2023/02/07 01:09:44;;;;;;;5.77;4.77;;;;;;;;;;5060574;28;20445;-67
2023/02/07 01:12:12;;;;;;;5.97;5.07;;;;;;;;;;5060644;28;20528;-67
2023/02/07 01:14:40;;;;;;;5.23;4.40;;;;;;;;;;5065657;28;20511;-67
2023/02/07 01:17:08;;;;;;;7.00;4.87;;;;;;;;;;5080856;28;20444;-67
2023/02/07 01:19:36;;;;;;;6.23;4.90;;;;;;;;;;5075188;28;20843;-67
2023/02/07 01:22:05;;;;;;;6.67;4.50;;;;;;;;;;5064229;28;20525;-67
2023/02/07 01:24:34;;;;;;;5.70;4.37;;;;;;;;;;5072885;28;20999;-67
2023/02/07 01:27:02;;;;;;;5.90;4.50;;;;;;;;;;5069890;28;20494;-67
2023/02/07 01:29:30;;;;;;;5.10;4.60;;;;;;;;;;5075301;28;20460;-67
2023/02/07 01:31:58;;;;;;;9.53;4.07;;;;;;;;;;5080567;28;20452;-67
2023/02/07 01:34:26;;;;;;;6.37;4.80;;;;;;;;;;5076431;28;20480;-67
2023/02/07 01:36:53;;;;;;;6.67;5.00;;;;;;;;;;5085606;28;20483;-67
2023/02/07 01:39:23;;;;;;;5.90;4.63;;;;;;;;;;5096583;28;20484;-67
2023/02/07 01:41:51;;;;;;;9.33;4.70;;;;;;;;;;5088195;28;20458;-67
2023/02/07 01:44:37;;;;;;;5.03;4.00;;;;;;;;;;5093690;28;20480;-67
2023/02/07 01:47:05;;;;;;;7.77;4.83;;;;;;;;;;5095316;28;20451;-67
2023/02/07 01:49:35;;;;;;;7.67;4.33;;;;;;;;;;5082608;28;20456;-67
2023/02/07 01:52:05;;;;;;;6.07;4.83;;;;;;;;;;5095702;28;20509;-67
2023/02/07 01:54:35;;;;;;;4.73;4.23;;;;;;;;;;5088742;28;20562;-68
2023/02/07 01:57:04;;;;;;;3.93;3.60;;;;;;;;;;5086450;28;20458;-67
2023/02/07 01:59:34;;;;;;;4.50;3.87;;;;;;;;;;5098286;28;20483;-67
2023/02/07 02:02:02;;;;;;;6.03;4.50;;;;;;;;;;5091677;28;20452;-68
2023/02/07 02:04:30;;;;;;;5.23;4.70;;;;;;;;;;5092412;28;20504;-68
2023/02/07 02:06:58;;;;;;;4.17;3.77;;;;;;;;;;5090297;28;20550;-67
2023/02/07 02:09:28;;;;;;;4.33;3.87;;;;;;;;;;5097545;28;20476;-68
2023/02/07 02:12:08;;;;;;;6.93;3.87;;;;;;;;;;5091045;28;20447;-67
2023/02/07 02:14:45;;;;;;;4.93;4.10;;;;;;;;;;5081246;28;20468;-67
2023/02/07 02:17:24;;;;;;;5.30;4.63;;;;;;;;;;5092996;28;20480;-67
2023/02/07 02:20:19;;;;;;;4.17;3.77;;;;;;;;;;5082847;28;20562;-67
2023/02/07 02:22:55;;;;;;;5.00;4.37;;;;;;;;;;5085667;28;20550;-67
2023/02/07 02:25:49;;;;;;;5.17;4.30;;;;;;;;;;5085859;28;20479;-67
2023/02/07 02:28:33;;;;;;;6.63;4.00;;;;;;;;;;5046274;28;20448;-68
2023/02/07 02:31:10;;;;;;;5.50;4.10;;;;;;;;;;5090739;28;20538;-67
2023/02/07 02:33:45;;;;;;;6.77;4.13;;;;;;;;;;5097540;28;20459;-67
2023/02/07 02:36:20;;;;;;;4.93;3.87;;;;;;;;;;5094643;28;20482;-66
2023/02/07 02:38:53;;;;;;;5.73;4.27;;;;;;;;;;5085887;28;20444;-68
2023/02/07 02:41:23;;;;;;;4.10;3.50;;;;;;;;;;5089684;28;20471;-67
2023/02/07 02:43:54;;;;;;;5.20;3.60;;;;;;;;;;5091315;28;20463;-67
2023/02/07 02:46:23;;;;;;;5.73;4.10;;;;;;;;;;5099196;28;20829;-67
2023/02/07 02:48:53;;;;;;;5.47;3.73;;;;;;;;;;5092109;28;20791;-67
2023/02/07 02:51:21;;;;;;;4.87;4.20;;;;;;;;;;5098936;28;20447;-67
2023/02/07 02:53:52;;;;;;;5.47;4.20;;;;;;;;;;5098456;28;20491;-67
2023/02/07 02:56:37;;;;;;;6.10;4.30;;;;;;;;;;5097052;28;20458;-67
2023/02/07 02:59:23;;;;;;;4.40;4.00;;;;;;;;;;5093440;28;20472;-67
2023/02/07 03:01:54;;;;;;;4.00;3.60;;;;;;;;;;5096177;28;20505;-69
2023/02/07 03:04:43;;;;;;;4.73;4.30;;;;;;;;;;5095271;28;20459;-67
2023/02/07 03:07:21;;;;;;;6.87;4.30;;;;;;;;;;5092737;28;20511;-67
2023/02/07 03:09:54;;;;;;;6.13;4.07;;;;;;;;;;5096141;28;20442;-67
2023/02/07 03:12:25;;;;;;;5.10;4.27;;;;;;;;;;5094521;28;20476;-67
2023/02/07 03:14:57;;;;;;;6.37;3.80;;;;;;;;;;5096270;28;20931;-67
2023/02/07 03:17:27;;;;;;;5.37;3.70;;;;;;;;;;5093414;28;20452;-67
2023/02/07 03:20:01;;;;;;;5.67;3.93;;;;;;;;;;5095290;28;21039;-67
2023/02/07 03:22:31;;;;;;;4.53;3.37;;;;;;;;;;5091105;28;21038;-67
2023/02/07 03:25:00;;;;;;;4.00;3.57;;;;;;;;;;5086932;28;20455;-67
2023/02/07 03:27:30;;;;;;;5.97;3.80;;;;;;;;;;5094716;28;20444;-68
2023/02/07 03:30:00;;;;;;;5.33;3.93;;;;;;;;;;5095493;28;20505;-67
2023/02/07 03:32:31;;;;;;;5.83;4.27;;;;;;;;;;5095692;28;20972;-67
2023/02/07 03:35:01;;;;;;;4.43;3.30;;;;;;;;;;5094951;28;20483;-67
2023/02/07 03:37:32;;;;;;;5.63;3.97;;;;;;;;;;5097641;28;20471;-67
2023/02/07 03:40:00;;;;;;;6.63;4.03;;;;;;;;;;5091186;28;20487;-67
2023/02/07 03:42:30;;;;;;;4.10;3.70;;;;;;;;;;5091102;28;20508;-67
2023/02/07 03:44:59;;;;;;;5.07;3.47;;;;;;;;;;5089732;28;20484;-67
2023/02/07 03:47:27;;;;;;;5.50;3.90;;;;;;;;;;5095031;28;20479;-67
2023/02/07 03:49:55;;;;;;;6.17;3.73;;;;;;;;;;5090226;28;20460;-67
2023/02/07 03:52:23;;;;;;;5.27;3.93;;;;;;;;;;5094946;28;20490;-67
2023/02/07 03:54:52;;;;;;;7.57;3.73;;;;;;;;;;5094911;28;20487;-67
2023/02/07 03:57:20;;;;;;;5.03;4.17;;;;;;;;;;5089167;28;20533;-67
2023/02/07 03:59:48;;;;;;;3.30;3.00;;;;;;;;;;5089164;28;20483;-67
2023/02/07 04:02:17;;;;;;;5.10;3.90;;;;;;;;;;5077945;28;20475;-67
2023/02/07 04:04:45;;;;;;;4.07;3.67;;;;;;;;;;5087229;28;20992;-68
2023/02/07 04:07:13;;;;;;;5.30;3.77;;;;;;;;;;5088806;28;20451;-67
2023/02/07 04:09:41;;;;;;;4.37;3.70;;;;;;;;;;5091468;28;20544;-67
2023/02/07 04:12:11;;;;;;;4.47;3.37;;;;;;;;;;5091701;28;20476;-67
2023/02/07 04:14:39;;;;;;;5.37;3.90;;;;;;;;;;5094263;28;20562;-67
2023/02/07 04:17:07;;;;;;;6.97;3.90;;;;;;;;;;5081546;28;20499;-67
2023/02/07 04:19:35;;;;;;;5.63;3.53;;;;;;;;;;5091505;28;20453;-67
2023/02/07 04:22:03;;;;;;;5.47;3.97;;;;;;;;;;5097418;28;20964;-67
2023/02/07 04:24:31;;;;;;;4.30;3.90;;;;;;;;;;5092173;28;20480;-67
2023/02/07 04:26:59;;;;;;;3.80;3.23;;;;;;;;;;5093500;28;20456;-67
2023/02/07 04:29:28;;;;;;;5.33;3.87;;;;;;;;;;5099765;28;20933;-67
2023/02/07 04:31:56;;;;;;;5.23;3.63;;;;;;;;;;5101652;28;20900;-67
2023/02/07 04:34:26;;;;;;;4.63;4.23;;;;;;;;;;5098107;28;20475;-67
2023/02/07 04:36:53;;;;;;;4.27;3.70;;;;;;;;;;5101625;28;20471;-67
2023/02/07 04:39:21;;;;;;;3.83;3.50;;;;;;;;;;5096245;28;21023;-67
2023/02/07 04:41:49;;;;;;;5.13;3.40;;;;;;;;;;5100012;28;20487;-66
2023/02/07 04:44:17;;;;;;;3.57;3.17;;;;;;;;;;5101599;28;20459;-67
2023/02/07 04:46:47;;;;;;;4.13;3.47;;;;;;;;;;5115788;28;20474;-67
2023/02/07 04:49:15;;;;;;;4.03;3.33;;;;;;;;;;5101254;28;20942;-67
2023/02/07 04:51:43;;;;;;;4.23;3.60;;;;;;;;;;5101556;28;20530;-67
2023/02/07 04:54:11;;;;;;;3.50;3.20;;;;;;;;;;5101445;28;20474;-67
2023/02/07 04:56:39;;;;;;;3.97;3.17;;;;;;;;;;5097345;28;20454;-68
2023/02/07 04:59:07;;;;;;;4.27;3.17;;;;;;;;;;5101169;28;20444;-67
2023/02/07 05:01:34;;;;;;;4.10;3.33;;;;;;;;;;5100847;28;20515;-68
2023/02/07 05:04:04;;;;;;;4.87;3.57;;;;;;;;;;5100869;28;20522;-67
2023/02/07 05:06:32;;;;;;;5.00;3.50;;;;;;;;;;5101146;28;20451;-67
2023/02/07 05:09:00;;;;;;;3.93;3.23;;;;;;;;;;5101012;28;20450;-67
2023/02/07 05:11:28;;;;;;;5.93;3.63;;;;;;;;;;5099537;28;20475;-67
2023/02/07 05:13:56;;;;;;;4.27;3.50;;;;;;;;;;5091297;28;20539;-67
2023/02/07 05:16:24;;;;;;;3.83;3.50;;;;;;;;;;5100994;28;20501;-67
2023/02/07 05:18:52;;;;;;;5.57;3.43;;;;;;;;;;5100847;28;20467;-67
2023/02/07 05:21:21;;;;;;;5.10;3.50;;;;;;;;;;5097523;28;20479;-67
2023/02/07 05:23:49;;;;;;;4.47;3.00;;;;;;;;;;5094527;28;20463;-67
2023/02/07 05:26:17;;;;;;;3.63;3.20;;;;;;;;;;5095982;28;20482;-67
2023/02/07 05:28:45;;;;;;;3.83;3.20;;;;;;;;;;5098100;28;20459;-67
2023/02/07 05:31:13;;;;;;;4.50;3.33;;;;;;;;;;5096717;28;20474;-67
2023/02/07 05:33:41;;;;;;;3.97;3.60;;;;;;;;;;5097609;28;20479;-67
2023/02/07 05:36:09;;;;;;;4.53;3.40;;;;;;;;;;5095689;28;20524;-66
2023/02/07 05:38:38;;;;;;;3.40;3.10;;;;;;;;;;5099263;28;20436;-67
2023/02/07 05:41:08;;;;;;;4.33;3.83;;;;;;;;;;5094961;28;20563;-67
2023/02/07 05:43:36;;;;;;;5.70;3.90;;;;;;;;;;5095188;28;20475;-67
2023/02/07 05:46:04;;;;;;;4.40;3.43;;;;;;;;;;5096622;28;20483;-66
2023/02/07 05:48:32;;;;;;;4.67;3.57;;;;;;;;;;5093317;28;20501;-67
2023/02/07 05:51:00;;;;;;;3.60;3.20;;;;;;;;;;5097770;28;20978;-67
2023/02/07 05:53:28;;;;;;;4.10;3.17;;;;;;;;;;5094112;28;20522;-66
2023/02/07 05:55:58;;;;;;;3.80;3.07;;;;;;;;;;5095936;28;20440;-66
2023/02/07 05:58:26;;;;;;;4.10;3.50;;;;;;;;;;5098785;28;21623;-66
2023/02/07 06:00:55;;;;;;;5.43;3.30;;;;;;;;;;5094620;28;20479;-66
2023/02/07 06:03:23;;;;;;;5.80;3.77;;;;;;;;;;5097788;28;20451;-66
2023/02/07 06:05:54;;;;;;;4.80;3.40;;;;;;;;;;5096973;28;20493;-66
2023/02/07 06:08:21;;;;;;;3.47;3.17;;;;;;;;;;5099637;28;20450;-66
2023/02/07 06:10:49;;;;;;;3.77;2.90;;;;;;;;;;5099334;28;20443;-66
2023/02/07 06:13:19;;;;;;;4.13;3.30;;;;;;;;;;5086146;28;20468;-66
2023/02/07 06:15:49;;;;;;;4.60;3.47;;;;;;;;;;5095877;28;20822;-66
2023/02/07 06:18:17;;;;;;;4.57;3.07;;;;;;;;;;5081931;28;20508;-66
2023/02/07 06:20:45;;;;;;;3.53;3.17;;;;;;;;;;5090042;28;20478;-66
2023/02/07 06:23:13;;;;;;;6.93;3.70;;;;;;;;;;5095081;28;20511;-66
2023/02/07 06:25:41;;;;;;;4.90;4.23;;;;;;;;;;5099232;28;20440;-66
2023/02/07 06:28:09;;;;;;;3.97;3.47;;;;;;;;;;5099110;28;20948;-67
2023/02/07 06:30:38;;;;;;;4.73;3.70;;;;;;;;;;5098892;28;20455;-66
2023/02/07 06:33:06;;;;;;;3.80;3.40;;;;;;;;;;5090443;28;20991;-67
2023/02/07 06:35:34;;;;;;;5.73;3.57;;;;;;;;;;5090091;28;20974;-67
2023/02/07 06:38:03;;;;;;;5.63;3.90;;;;;;;;;;5098035;28;20464;-67
2023/02/07 06:40:31;;;;;;;3.83;3.47;;;;;;;;;;5093697;28;20451;-67
2023/02/07 06:42:58;;;;;;;5.43;3.60;;;;;;;;;;5091759;28;20487;-66
2023/02/07 06:45:26;;;;;;;4.37;3.00;;;;;;;;;;5088249;28;20494;-67
2023/02/07 06:47:56;;;;;;;4.17;3.30;;;;;;;;;;5098932;28;20467;-66
2023/02/07 06:50:24;;;;;;;5.17;4.23;;;;;;;;;;5097517;28;20450;-66
2023/02/07 06:52:52;;;;;;;6.33;4.23;;;;;;;;;;5098202;28;20462;-67
2023/02/07 06:55:20;;;;;;;5.07;3.53;;;;;;;;;;5095790;28;20471;-66
2023/02/07 06:57:48;;;;;;;4.17;3.57;;;;;;;;;;5098333;28;20528;-67
2023/02/07 07:00:16;;;;;;;5.77;3.80;;;;;;;;;;5098032;28;20462;-67
2023/02/07 07:02:44;;;;;;;4.30;3.90;;;;;;;;;;5095357;28;20995;-67
2023/02/07 07:05:14;;;;;;;3.90;3.17;;;;;;;;;;5094155;28;20451;-67
2023/02/07 07:07:43;;;;;;;4.80;3.67;;;;;;;;;;5095117;28;20483;-67
2023/02/07 07:10:11;;;;;;;5.90;4.40;;;;;;;;;;5096905;28;20531;-67
2023/02/07 07:12:39;;;;;;;4.57;3.83;;;;;;;;;;5097632;28;20881;-67
2023/02/07 07:15:08;;;;;;;5.27;3.47;;;;;;;;;;5094794;28;20546;-67
2023/02/07 07:17:36;;;;;;;5.20;3.73;;;;;;;;;;5093138;28;20463;-67
2023/02/07 07:20:04;;;;;;;4.67;4.00;;;;;;;;;;5097221;28;20444;-66
2023/02/07 07:22:33;;;;;;;4.83;3.77;;;;;;;;;;5091788;28;20483;-66
2023/02/07 07:25:03;;;;;;;5.17;4.67;;;;;;;;;;5089092;28;20452;-66
2023/02/07 07:27:31;;;;;;;8.17;5.90;;;;;;;;;;5095225;28;20451;-66
2023/02/07 07:29:59;;;;;;;4.60;3.83;;;;;;;;;;5090808;28;20461;-66
2023/02/07 07:32:27;;;;;;;6.10;4.30;;;;;;;;;;5081098;28;20506;-66
2023/02/07 07:35:01;;;;;;;5.83;3.67;;;;;;;;;;5084110;28;20451;-66
2023/02/07 07:37:29;;;;;;;6.27;4.07;;;;;;;;;;5088653;28;20488;-65
2023/02/07 07:39:58;;;;;;;4.07;3.67;;;;;;;;;;5091483;28;20455;-65
2023/02/07 07:42:26;;;;;;;4.17;3.73;;;;;;;;;;5088416;28;20507;-66
2023/02/07 07:44:54;;;;;;;6.50;4.80;;;;;;;;;;5081548;28;20448;-65
2023/02/07 07:47:23;;;;;;;4.33;3.93;;;;;;;;;;5092078;28;20480;-66
2023/02/07 07:49:51;;;;;;;4.87;3.30;;;;;;;;;;5094362;28;20462;-66
2023/02/07 07:52:19;;;;;;;5.10;4.23;;;;;;;;;;5088049;28;20464;-66
2023/02/07 07:54:49;;;;;;;3.93;3.43;;;;;;;;;;5087261;28;20449;-65
2023/02/07 07:57:18;;;;;;;5.33;3.97;;;;;;;;;;5092621;28;20448;-65
2023/02/07 07:59:48;;;;;;;4.37;3.97;;;;;;;;;;5088485;28;20452;-66
2023/02/07 08:02:16;;;;;;;7.83;3.93;;;;;;;;;;5079060;28;20559;-66
2023/02/07 08:04:44;;;;;;;5.17;3.80;;;;;;;;;;5090351;28;20467;-67
2023/02/07 08:07:12;;;;;;;4.20;3.80;;;;;;;;;;5090966;28;20514;-67
2023/02/07 08:09:40;;;;;;;4.63;3.77;;;;;;;;;;5094702;28;20885;-66
2023/02/07 08:12:08;;;;;;;5.77;4.60;;;;;;;;;;5097091;28;20858;-67
2023/02/07 08:14:37;;;;;;;8.87;4.87;;;;;;;;;;5095085;28;20566;-66
2023/02/07 08:17:05;;;;;;;6.67;5.17;;;;;;;;;;5093415;28;20452;-69
2023/02/07 08:19:33;;;;;;;7.20;4.60;;;;;;;;;;5096225;28;20530;-70
2023/02/07 08:22:01;;;;;;;9.63;3.93;;;;;;;;;;5095767;28;20482;-70
2023/02/07 08:24:29;;;;;;;5.93;4.10;;;;;;;;;;5080511;28;20495;-70
2023/02/07 08:26:57;;;;;;;5.80;3.90;;;;;;;;;;5092498;28;20447;-71
2023/02/07 08:29:25;;;;;;;9.27;5.13;;;;;;;;;;5095491;28;20452;-71
2023/02/07 08:31:54;;;;;;;8.03;4.63;;;;;;;;;;5088586;28;20486;-70
2023/02/07 08:34:25;;;;;;;6.10;3.80;;;;;;;;;;5085548;28;20849;-69
2023/02/07 08:36:53;;;;;;;5.33;4.67;;;;;;;;;;5088572;28;20506;-71
2023/02/07 08:39:21;;;;;;;11.20;4.60;;;;;;;;;;5094567;28;20818;-72
2023/02/07 08:41:49;;;;;;;6.53;4.57;;;;;;;;;;5088894;28;20454;-70
2023/02/07 08:44:17;;;;;;;6.67;4.33;;;;;;;;;;5095023;28;20539;-70
2023/02/07 08:46:45;;;;;;;7.53;4.70;;;;;;;;;;5094122;28;20527;-70
2023/02/07 08:49:14;;;;;;;5.53;4.10;;;;;;;;;;5096878;28;20438;-68
2023/02/07 08:51:42;;;;;;;6.90;5.13;;;;;;;;;;5096054;28;20526;-72
2023/02/07 08:54:10;;;;;;;5.33;4.83;;;;;;;;;;5093820;28;20455;-70
2023/02/07 08:56:38;;;;;;;6.37;4.07;;;;;;;;;;5097268;28;20958;-71
2023/02/07 08:59:06;;;;;;;4.67;4.23;;;;;;;;;;5097662;28;20444;-71
2023/02/07 09:01:34;;;;;;;4.97;4.47;;;;;;;;;;5097293;28;20532;-70
2023/02/07 09:04:02;;;;;;;4.90;4.40;;;;;;;;;;5098184;28;20849;-71
2023/02/07 09:06:31;;;;;;;8.07;5.43;;;;;;;;;;5085715;28;20443;-71
2023/02/07 09:08:59;;;;;;;9.83;5.90;;;;;;;;;;5093607;28;20451;-71
2023/02/07 09:11:27;;;;;;;7.67;5.30;;;;;;;;;;5090849;28;20452;-71
2023/02/07 09:13:55;;;;;;;7.33;5.43;;;;;;;;;;5092000;28;20476;-72
2023/02/07 09:16:23;;;;;;;8.83;5.03;;;;;;;;;;5090832;28;20534;-71
2023/02/07 09:18:52;;;;;;;5.93;5.27;;;;;;;;;;5099161;28;20439;-71
2023/02/07 09:21:20;;;;;;;7.87;5.40;;;;;;;;;;5100716;28;20534;-71
2023/02/07 09:23:49;;;;;;;10.67;5.63;;;;;;;;;;5098415;28;20519;-71
2023/02/07 09:26:19;;;;;;;10.93;5.23;;;;;;;;;;5085936;28;20448;-71
2023/02/07 09:28:47;;;;;;;7.67;5.90;;;;;;;;;;5091396;28;20459;-71
2023/02/07 09:31:15;;;;;;;7.83;5.47;;;;;;;;;;5087352;28;20496;-71
2023/02/07 09:33:43;;;;;;;9.20;5.97;;;;;;;;;;5093231;28;20479;-71
2023/02/07 09:36:18;;;;;;;7.33;4.93;;;;;;;;;;5096844;28;20479;-71
2023/02/07 09:38:47;;;;;;;7.93;5.40;;;;;;;;;;5097843;28;20509;-71
2023/02/07 09:41:19;;;;;;;7.63;5.10;;;;;;;;;;5094845;28;20542;-71
2023/02/07 09:43:53;;;;;;;8.57;5.97;;;;;;;;;;5095428;28;20566;-70
2023/02/07 09:46:24;;;;;;;8.30;5.53;;;;;;;;;;5093899;28;20439;-69
2023/02/07 09:48:54;;;;;;;7.03;6.00;;;;;;;;;;5095618;28;20475;-71
2023/02/07 09:51:22;;;;;;;8.23;5.80;;;;;;;;;;5092660;28;20435;-71
2023/02/07 09:53:53;;;;;;;7.77;5.87;;;;;;;;;;5096719;28;20923;-71
2023/02/07 09:56:24;;;;;;;8.53;5.83;;;;;;;;;;5090818;28;20451;-71
2023/02/07 09:58:55;;;;;;;8.57;6.13;;;;;;;;;;5096801;28;20494;-71
2023/02/07 10:01:25;;;;;;;9.33;5.40;;;;;;;;;;5094497;28;20237;-70
2023/02/07 10:04:06;;;;;;;7.90;5.80;;;;;;;;;;5090201;28;20566;-71
2023/02/07 10:06:35;;;;;;;9.03;5.83;;;;;;;;;;5097458;28;20478;-71
2023/02/07 10:09:03;;;;;;;10.77;5.90;;;;;;;;;;5089257;28;20440;-71
2023/02/07 10:11:39;;;;;;;8.60;6.37;;;;;;;;;;5087856;28;20238;-71
2023/02/07 10:14:14;;;;;;;10.03;6.63;;;;;;;;;;5080124;28;20218;-71
2023/02/07 10:16:49;;;;;;;10.93;5.83;;;;;;;;;;5090017;28;20201;-70
2023/02/07 10:19:25;;;;;;;9.27;6.50;;;;;;;;;;5086813;28;21007;-70
2023/02/07 10:21:58;;;;;;;8.17;5.83;;;;;;;;;;5099617;28;20475;-71
2023/02/07 10:24:34;;;;;;;8.33;6.20;;;;;;;;;;5094936;28;20913;-71
2023/02/07 10:27:09;;;;;;;7.53;5.67;;;;;;;;;;5095356;28;20443;-71
2023/02/07 10:29:51;;;;;;;7.20;5.17;;;;;;;;;;5090368;28;20483;-71
2023/02/07 10:32:22;;;;;;;8.43;5.93;;;;;;;;;;5093536;28;20490;-71
2023/02/07 10:34:52;;;;;;;9.27;7.50;;;;;;;;;;5097033;28;20482;-71
2023/02/07 10:37:22;;;;;;;7.60;5.90;;;;;;;;;;5095577;28;20554;-71
2023/02/07 10:39:57;;;;;;;9.70;6.30;;;;;;;;;;5088556;28;20486;-72
2023/02/07 10:42:27;;;;;;;8.80;6.30;;;;;;;;;;5094363;28;20447;-72
2023/02/07 10:44:55;;;;;;;8.87;5.93;;;;;;;;;;5096646;28;20514;-71
2023/02/07 10:47:25;;;;;;;13.40;5.83;;;;;;;;;;5088573;28;20447;-71
2023/02/07 10:49:53;;;;;;;8.27;6.07;;;;;;;;;;5098934;28;20444;-72
2023/02/07 10:52:27;;;;;;;10.13;5.63;;;;;;;;;;5090772;28;20527;-71
2023/02/07 10:54:56;;;;;;;7.67;5.73;;;;;;;;;;5096045;28;20460;-71
2023/02/07 10:57:25;;;;;;;7.83;5.50;;;;;;;;;;5098708;28;20443;-71
2023/02/07 11:00:05;;;;;;;10.77;5.83;;;;;;;;;;5091771;28;20467;-70
2023/02/07 11:02:38;;;;;;;9.83;6.00;;;;;;;;;;5095187;28;20470;-68
2023/02/07 11:05:25;;;;;;;15.87;8.30;;;;;;;;;;5091248;28;20507;-68
2023/02/07 11:07:57;;;;;;;8.37;6.00;;;;;;;;;;5093973;28;20652;-67
2023/02/07 11:10:26;;;;;;;9.63;6.30;;;;;;;;;;5094371;28;20243;-66
2023/02/07 11:12:55;;;;;;;10.20;7.37;;;;;;;;;;5089069;28;20239;-71
2023/02/07 11:15:27;;;;;;;9.07;5.63;;;;;;;;;;5094011;28;20198;-69
2023/02/07 11:17:56;;;;;;;7.77;6.23;;;;;;;;;;5091990;28;20208;-72
2023/02/07 11:20:26;;;;;;;10.57;6.37;;;;;;;;;;5092168;28;20209;-68
2023/02/07 11:22:54;;;;;;;9.47;6.33;;;;;;;;;;5095535;28;20278;-67
2023/02/07 11:25:28;;;;;;;8.10;6.33;;;;;;;;;;5094401;28;20789;-66
2023/02/07 11:27:56;;;;;;;12.07;6.33;;;;;;;;;;5091207;28;20208;-67
2023/02/07 11:30:27;;;;;;;8.60;6.20;;;;;;;;;;5093608;28;20689;-68
2023/02/07 11:32:57;;;;;;;7.90;5.57;;;;;;;;;;5094556;28;20911;-69
2023/02/07 11:35:25;;;;;;;12.67;6.07;;;;;;;;;;5089475;28;20196;-68
2023/02/07 11:38:01;;;;;;;9.43;6.47;;;;;;;;;;5093656;28;20235;-68
2023/02/07 11:40:36;;;;;;;8.80;6.20;;;;;;;;;;5094216;28;20719;-67
2023/02/07 11:43:10;;;;;;;8.43;6.13;;;;;;;;;;5091671;28;20314;-68
2023/02/07 11:45:42;;;;;;;10.33;6.50;;;;;;;;;;5091290;28;20222;-67
2023/02/07 11:48:16;;;;;;;7.67;5.77;;;;;;;;;;5093802;28;20202;-67
2023/02/07 11:50:46;;;;;;;8.30;6.00;;;;;;;;;;5093233;28;20732;-71
2023/02/07 11:53:23;;;;;;;6.43;5.33;;;;;;;;;;5089638;28;20217;-69
2023/02/07 11:55:52;;;;;;;8.50;6.20;;;;;;;;;;5085542;28;20221;-72
2023/02/07 11:58:25;;;;;;;11.40;5.57;;;;;;;;;;5096436;28;20588;-70
2023/02/07 12:00:55;;;;;;;9.13;6.10;;;;;;;;;;5094231;28;20244;-70
2023/02/07 12:03:24;;;;;;;12.57;6.40;;;;;;;;;;5096784;28;20261;-69
2023/02/07 12:05:54;;;;;;;9.07;6.30;;;;;;;;;;5084549;28;20803;-70
2023/02/07 12:08:23;;;;;;;9.27;6.13;;;;;;;;;;5091677;28;20575;-69
2023/02/07 12:10:54;;;;;;;9.57;6.83;;;;;;;;;;5089205;28;20214;-70
2023/02/07 12:13:24;;;;;;;9.00;5.60;;;;;;;;;;5091712;28;20225;-70
2023/02/07 12:15:54;;;;;;;9.53;6.07;;;;;;;;;;5082220;28;20236;-69
2023/02/07 12:18:28;;;;;;;10.13;6.40;;;;;;;;;;5084168;28;20214;-69
2023/02/07 12:20:58;;;;;;;6.50;4.83;;;;;;;;;;5093518;28;20204;-69
2023/02/07 12:23:29;;;;;;;10.67;5.90;;;;;;;;;;5083326;28;20213;-69
2023/02/07 12:26:16;;;;;;;6.40;5.17;;;;;;;;;;5089760;28;20206;-71
2023/02/07 12:28:48;;;;;;;7.97;6.30;;;;;;;;;;5079747;28;20225;-69
2023/02/07 12:31:20;;;;;;;11.40;6.47;;;;;;;;;;5080795;28;20206;-69
2023/02/07 12:33:52;;;;;;;11.30;6.27;;;;;;;;;;5091995;28;21259;-72
2023/02/07 12:36:23;;;;;;;9.80;6.37;;;;;;;;;;5090912;28;20726;-70
2023/02/07 12:38:55;;;;;;;11.33;6.87;;;;;;;;;;5088661;28;20202;-70
2023/02/07 12:41:25;;;;;;;8.80;5.73;;;;;;;;;;5081228;28;20285;-66
2023/02/07 12:44:01;;;;;;;9.67;5.73;;;;;;;;;;5081016;28;20313;-66
2023/02/07 12:46:35;;;;;;;8.87;4.90;;;;;;;;;;5094420;28;20193;-69
2023/02/07 12:49:14;;;;;;;9.03;5.93;;;;;;;;;;5097983;28;20237;-69
2023/02/07 12:51:46;;;;;;;8.97;5.67;;;;;;;;;;5089823;28;20289;-68
2023/02/07 12:54:20;;;;;;;7.57;5.93;;;;;;;;;;5099260;28;20756;-68
2023/02/07 12:56:52;;;;;;;6.17;5.43;;;;;;;;;;5087626;28;20244;-66
2023/02/07 12:59:25;;;;;;;7.53;5.60;;;;;;;;;;5088023;28;20205;-66
2023/02/07 13:01:58;;;;;;;7.20;4.93;;;;;;;;;;5098122;28;20193;-67
2023/02/07 13:04:44;;;;;;;7.70;5.07;;;;;;;;;;5092433;28;20229;-67
2023/02/07 13:07:24;;;;;;;10.23;5.53;;;;;;;;;;5102154;28;20206;-67
2023/02/07 13:09:56;;;;;;;10.00;4.90;;;;;;;;;;5094309;28;20210;-68
2023/02/07 13:12:27;;;;;;;7.57;5.27;;;;;;;;;;5099345;28;20233;-67
2023/02/07 13:15:01;;;;;;;8.90;5.30;;;;;;;;;;5095858;28;20208;-67
2023/02/07 13:17:33;;;;;;;9.57;5.57;;;;;;;;;;5093184;28;20208;-66
2023/02/07 13:20:05;;;;;;;10.13;5.63;;;;;;;;;;5089972;28;20209;-66
2023/02/07 13:22:37;;;;;;;7.80;5.60;;;;;;;;;;5092286;28;20237;-66
2023/02/07 13:25:08;;;;;;;7.40;5.47;;;;;;;;;;5094462;28;20626;-67
2023/02/07 13:27:36;;;;;;;7.50;5.03;;;;;;;;;;5099465;28;20276;-67
2023/02/07 13:30:06;;;;;;;9.37;5.40;;;;;;;;;;5091868;28;20202;-66
2023/02/07 13:32:34;;;;;;;13.23;5.63;;;;;;;;;;5094356;28;20288;-67
2023/02/07 13:35:04;;;;;;;7.43;4.80;;;;;;;;;;5095452;28;20206;-66
2023/02/07 13:37:36;;;;;;;6.90;5.20;;;;;;;;;;5089073;28;20225;-67
2023/02/07 13:40:12;;;;;;;8.27;5.70;;;;;;;;;;5096352;28;20288;-67
2023/02/07 13:42:43;;;;;;;8.70;5.27;;;;;;;;;;5093657;28;20257;-67
2023/02/07 13:45:20;;;;;;;6.37;4.93;;;;;;;;;;5095721;28;20304;-66
2023/02/07 13:47:58;;;;;;;6.93;5.00;;;;;;;;;;5086457;28;20217;-67
2023/02/07 13:50:33;;;;;;;6.77;5.60;;;;;;;;;;5082457;28;20208;-67
2023/02/07 13:53:04;;;;;;;8.63;5.47;;;;;;;;;;5095001;28;20225;-67
2023/02/07 13:55:36;;;;;;;6.60;5.20;;;;;;;;;;5090589;28;20205;-69
2023/02/07 14:00:59;;;;;;;10.57;5.87;;;;;;;;;;5094574;28;20680;-68
2023/02/07 14:03:28;;;;;;;6.17;5.27;;;;;;;;;;5091203;28;20221;-67
2023/02/07 14:06:14;;;;;;;11.37;6.20;;;;;;;;;;5094633;28;20575;-66
2023/02/07 14:08:42;;;;;;;6.80;5.00;;;;;;;;;;5088130;28;20206;-67
2023/02/07 14:11:22;;;;;;;7.93;5.77;;;;;;;;;;5082686;28;20195;-67
2023/02/07 14:13:50;;;;;;;6.83;5.20;;;;;;;;;;5092361;28;20224;-65
2023/02/07 14:16:38;;;;;;;7.53;5.70;;;;;;;;;;5091666;28;20194;-65
2023/02/07 14:19:11;;;;;;;7.73;5.10;;;;;;;;;;5093077;28;20205;-64
2023/02/07 14:21:41;;;;;;;5.30;4.23;;;;;;;;;;5086006;28;20256;-65
2023/02/07 14:24:30;;;;;;;9.47;5.37;;;;;;;;;;5088491;28;20260;-66
2023/02/07 14:27:01;;;;;;;9.77;5.00;;;;;;;;;;5096109;28;20312;-67
2023/02/07 14:29:40;;;;;;;9.43;4.63;;;;;;;;;;5099108;28;20578;-67
2023/02/07 14:32:23;;;;;;;7.10;4.63;;;;;;;;;;5099021;28;20206;-66
2023/02/07 14:34:59;;;;;;;5.10;4.57;;;;;;;;;;5093437;28;20233;-66
2023/02/07 14:37:37;;;;;;;6.13;4.10;;;;;;;;;;5095633;28;20225;-66
2023/02/07 14:40:17;;;;;;;6.77;4.10;;;;;;;;;;5096127;28;20216;-66
2023/02/07 14:42:54;;;;;;;4.90;3.93;;;;;;;;;;5096761;28;20228;-67
2023/02/07 14:45:22;;;;;;;5.13;4.57;;;;;;;;;;5087621;28;20303;-67
2023/02/07 14:47:51;;;;;;;7.87;4.20;;;;;;;;;;5090734;28;20543;-65
2023/02/07 14:50:22;;;;;;;8.07;4.80;;;;;;;;;;5098985;28;20645;-66
2023/02/07 14:52:50;;;;;;;5.27;4.43;;;;;;;;;;5099346;28;20226;-67
2023/02/07 14:55:19;;;;;;;7.83;5.10;;;;;;;;;;5088166;28;20202;-68
2023/02/07 14:57:50;;;;;;;9.83;6.27;;;;;;;;;;5099090;28;20215;-68
2023/02/07 15:00:27;;;;;;;9.73;6.27;;;;;;;;;;5099086;28;20212;-69
2023/02/07 15:02:56;;;;;;;9.40;6.20;;;;;;;;;;5098701;28;20232;-68
2023/02/07 15:05:25;;;;;;;11.30;7.00;;;;;;;;;;5091673;28;20206;-68